TimeCST,TemperatureF,Dew PointF,Humidity,Sea Level PressureIn,VisibilityMPH,Wind Direction,Wind SpeedMPH,Gust SpeedMPH,PrecipitationIn,Events,Conditions,WindDirDegrees,DateUTC
12:53 AM,27.0,19.0,72,30.30,10.0,SW,5.8,-,N/A,,Clear,220,2013-12-31 06:53:00
1:53 AM,28.9,19.9,69,30.26,10.0,SW,12.7,-,N/A,,Clear,230,2013-12-31 07:53:00
2:53 AM,28.9,19.9,69,30.24,10.0,SSW,10.4,-,N/A,,Clear,210,2013-12-31 08:53:00
3:53 AM,30.0,19.9,66,30.23,10.0,SW,11.5,-,N/A,,Clear,220,2013-12-31 09:53:00
4:53 AM,28.9,19.9,69,30.21,10.0,SSW,11.5,-,N/A,,Clear,200,2013-12-31 10:53:00
5:53 AM,28.9,19.9,69,30.19,10.0,SSW,12.7,-,N/A,,Clear,200,2013-12-31 11:53:00
6:53 AM,30.0,19.9,66,30.19,10.0,SSW,13.8,-,N/A,,Clear,200,2013-12-31 12:53:00
7:53 AM,30.9,19.9,64,30.18,10.0,SSW,17.3,-,N/A,,Clear,200,2013-12-31 13:53:00
8:53 AM,34.0,19.9,56,30.18,10.0,SSW,18.4,-,N/A,,Clear,210,2013-12-31 14:53:00
9:53 AM,43.0,19.9,40,30.14,10.0,SSW,21.9,28.8,N/A,,Clear,210,2013-12-31 15:53:00
10:53 AM,46.9,19.0,33,30.13,10.0,SW,26.5,34.5,N/A,,Clear,230,2013-12-31 16:53:00
11:53 AM,51.1,19.9,29,30.08,10.0,SW,23.0,31.1,N/A,,Clear,220,2013-12-31 17:53:00
12:53 PM,54.0,21.0,28,30.02,10.0,SW,17.3,27.6,N/A,,Clear,230,2013-12-31 18:53:00
1:53 PM,55.9,19.9,25,29.97,10.0,SW,20.7,-,N/A,,Clear,220,2013-12-31 19:53:00
2:53 PM,57.0,19.9,24,29.95,10.0,SW,16.1,-,N/A,,Clear,220,2013-12-31 20:53:00
3:53 PM,57.9,19.9,23,29.94,10.0,SSW,12.7,-,N/A,,Clear,210,2013-12-31 21:53:00
4:53 PM,55.0,21.0,27,29.95,10.0,SW,9.2,-,N/A,,Clear,220,2013-12-31 22:53:00
5:53 PM,45.0,21.0,39,29.97,10.0,SSW,8.1,-,N/A,,Clear,200,2013-12-31 23:53:00
6:53 PM,41.0,19.9,43,29.97,10.0,SSW,8.1,-,N/A,,Clear,210,2014-01-01 00:53:00
7:53 PM,36.0,19.0,50,29.99,10.0,SW,6.9,-,N/A,,Clear,230,2014-01-01 01:53:00
8:53 PM,36.0,19.9,52,29.97,10.0,WSW,4.6,-,N/A,,Clear,250,2014-01-01 02:53:00
9:53 PM,32.0,19.9,61,29.95,10.0,NNW,4.6,-,N/A,,Clear,330,2014-01-01 03:53:00
10:53 PM,28.9,19.0,67,29.95,10.0,Variable,3.5,-,N/A,,Clear,0,2014-01-01 04:53:00
11:53 PM,30.0,21.0,69,29.93,10.0,NW,10.4,-,N/A,,Clear,310,2014-01-01 05:53:00